createdAt,value
2023-06-07T00:00:12.689Z,14.07
2023-06-07T00:05:17.050Z,13.95
2023-06-07T00:10:20.072Z,13.98
2023-06-07T00:15:23.061Z,13.90
2023-06-07T00:20:27.612Z,13.89
2023-06-07T00:25:31.365Z,13.85
2023-06-07T00:30:34.401Z,13.75
2023-06-07T00:35:38.658Z,13.58
2023-06-07T00:40:44.697Z,13.59
2023-06-07T00:45:47.633Z,13.59
2023-06-07T00:50:52.897Z,13.49
2023-06-07T00:55:55.951Z,13.43
2023-06-07T01:01:00.461Z,13.45
2023-06-07T01:06:04.848Z,13.41
2023-06-07T01:11:08.914Z,13.34
2023-06-07T01:16:12.660Z,12.91
2023-06-07T01:21:20.268Z,13.03
2023-06-07T01:26:27.956Z,13.10
2023-06-07T01:31:31.021Z,13.10
2023-06-07T01:36:34.040Z,13.09
2023-06-07T01:41:38.570Z,13.04
2023-06-07T01:46:42.499Z,12.89
2023-06-07T01:51:45.638Z,12.93
2023-06-07T01:56:59.040Z,12.88
2023-06-07T02:02:06.430Z,12.92
2023-06-07T02:07:10.874Z,12.95
2023-06-07T02:12:15.671Z,13.00
2023-06-07T02:17:18.700Z,13.06
2023-06-07T02:22:21.860Z,13.15
2023-06-07T02:27:26.306Z,13.06
2023-06-07T02:32:30.465Z,12.96
2023-06-07T02:37:33.624Z,13.17
2023-06-07T02:42:38.143Z,13.34
2023-06-07T02:47:41.441Z,13.44
2023-06-07T02:52:47.095Z,13.60
2023-06-07T02:57:51.919Z,13.70
2023-06-07T03:02:57.723Z,13.77
2023-06-07T03:08:01.358Z,13.80
2023-06-07T03:13:07.986Z,13.85
2023-06-07T03:18:16.615Z,13.98
2023-06-07T03:23:25.095Z,13.93
2023-06-07T03:28:32.204Z,14.01
2023-06-07T03:33:35.801Z,14.09
2023-06-07T03:38:38.916Z,14.22
2023-06-07T03:43:43.602Z,14.29
2023-06-07T03:48:49.139Z,14.36
2023-06-07T03:53:54.138Z,14.46
2023-06-07T03:59:02.865Z,14.44
2023-06-07T04:04:08.141Z,14.50
2023-06-07T04:09:11.155Z,14.61
2023-06-07T04:14:15.527Z,14.46
2023-06-07T04:19:18.951Z,14.66
2023-06-07T04:24:23.062Z,14.74
2023-06-07T04:29:27.991Z,14.80
2023-06-07T04:34:33.128Z,14.92
2023-06-07T04:39:37.595Z,15.06
2023-06-07T04:44:43.698Z,14.81
2023-06-07T04:49:53.310Z,15.05
2023-06-07T04:54:59.393Z,15.09
2023-06-07T05:00:13.161Z,15.22
2023-06-07T05:05:20.505Z,15.44
2023-06-07T05:10:25.026Z,15.48
2023-06-07T05:15:29.839Z,15.48
2023-06-07T05:20:34.014Z,15.52
2023-06-07T05:25:40.073Z,15.15
2023-06-07T05:30:45.064Z,15.75
2023-06-07T05:35:48.608Z,15.92
2023-06-07T05:40:55.116Z,15.97
2023-06-07T05:45:59.577Z,15.63
2023-06-07T05:51:04.055Z,16.31
2023-06-07T05:56:11.315Z,16.38
2023-06-07T06:01:15.946Z,16.69
2023-06-07T06:06:20.212Z,16.47
2023-06-07T06:11:23.530Z,16.89
2023-06-07T06:16:28.330Z,17.02
2023-06-07T06:21:32.477Z,17.01
2023-06-07T06:26:36.635Z,17.62
2023-06-07T06:31:42.238Z,17.70
2023-06-07T06:36:45.205Z,17.76
2023-06-07T06:41:48.171Z,17.92
2023-06-07T06:46:59.141Z,19.15
2023-06-07T06:52:02.185Z,19.32
2023-06-07T06:57:07.025Z,19.34
2023-06-07T07:02:12.271Z,18.80
2023-06-07T07:07:15.608Z,18.92
2023-06-07T07:12:18.884Z,19.12
2023-06-07T07:17:23.319Z,19.61
2023-06-07T07:22:28.863Z,19.75
2023-06-07T07:27:33.088Z,20.51
2023-06-07T07:32:37.432Z,21.17
2023-06-07T07:37:40.847Z,21.93
2023-06-07T07:42:43.968Z,21.14
2023-06-07T07:47:48.288Z,21.44
2023-06-07T07:52:51.423Z,21.43
2023-06-07T07:57:54.354Z,21.94
2023-06-07T08:02:58.895Z,24.07
2023-06-07T08:08:03.835Z,23.31
2023-06-07T08:13:06.813Z,22.63
2023-06-07T08:18:11.287Z,22.53
2023-06-07T08:23:14.565Z,23.26
2023-06-07T08:28:18.011Z,24.57
2023-06-07T08:33:22.348Z,25.24
2023-06-07T08:38:25.209Z,25.20
2023-06-07T08:43:28.292Z,25.44
2023-06-07T08:48:35.450Z,25.13
2023-06-07T08:53:43.888Z,25.29
2023-06-07T08:58:46.973Z,25.45
2023-06-07T09:03:53.825Z,25.46
2023-06-07T09:08:59.424Z,25.37
2023-06-07T09:14:02.733Z,25.15
2023-06-07T09:19:07.395Z,25.50
2023-06-07T09:24:10.415Z,25.33
2023-06-07T09:29:13.430Z,24.84
2023-06-07T09:34:22.987Z,24.93
2023-06-07T09:39:27.584Z,23.90
2023-06-07T09:44:32.426Z,24.29
2023-06-07T09:49:38.682Z,24.14
2023-06-07T09:54:42.881Z,23.70
2023-06-07T09:59:59.465Z,23.95
2023-06-07T10:05:04.134Z,23.61
2023-06-07T10:10:11.158Z,23.30
2023-06-07T10:15:16.712Z,23.53
2023-06-07T10:20:26.869Z,24.31
2023-06-07T10:25:32.484Z,24.31
2023-06-07T10:30:37.267Z,24.01
2023-06-07T10:35:41.833Z,23.82
2023-06-07T10:40:45.315Z,24.16
2023-06-07T10:45:48.326Z,24.08
2023-06-07T10:50:52.934Z,24.19
2023-06-07T10:55:56.472Z,24.74
2023-06-07T11:01:03.751Z,24.84
2023-06-07T11:06:10.149Z,24.05
2023-06-07T11:11:52.694Z,24.68
2023-06-07T11:16:55.804Z,24.79
2023-06-07T11:22:09.377Z,25.62
2023-06-07T11:27:16.055Z,25.73
2023-06-07T11:32:19.260Z,24.92
2023-06-07T11:37:24.001Z,24.74
2023-06-07T11:42:27.290Z,25.24
2023-06-07T11:47:30.364Z,25.20
2023-06-07T11:52:34.848Z,25.04
2023-06-07T11:57:39.423Z,24.92
2023-06-07T12:02:42.870Z,24.81
2023-06-07T12:07:58.506Z,24.23
2023-06-07T12:13:10.633Z,24.52
2023-06-07T12:18:14.763Z,24.99
2023-06-07T12:23:22.892Z,24.90
2023-06-07T12:28:26.905Z,24.43
2023-06-07T12:33:30.317Z,24.75
2023-06-07T12:38:34.779Z,24.47
2023-06-07T12:43:37.846Z,24.29
2023-06-07T12:48:40.943Z,24.11
2023-06-07T12:53:45.763Z,24.87
2023-06-07T12:58:48.846Z,24.55
2023-06-07T13:03:51.948Z,24.66
2023-06-07T13:09:08.432Z,25.27
2023-06-07T13:14:11.681Z,25.39
2023-06-07T13:19:14.633Z,25.39
2023-06-07T13:24:19.629Z,25.69
2023-06-07T13:29:22.677Z,25.62
2023-06-07T13:34:25.701Z,25.41
2023-06-07T13:39:30.150Z,25.75
2023-06-07T13:44:33.394Z,25.23
2023-06-07T13:49:38.909Z,24.59
2023-06-07T13:54:44.179Z,24.93
2023-06-07T13:59:47.561Z,25.29
2023-06-07T14:04:50.940Z,25.29
2023-06-07T14:09:55.363Z,24.39
2023-06-07T14:14:58.460Z,25.09
2023-06-07T14:20:01.559Z,24.34
2023-06-07T14:25:07.614Z,24.55
2023-06-07T14:30:11.528Z,24.58
2023-06-07T14:35:14.744Z,24.17
2023-06-07T14:40:19.991Z,24.05
2023-06-07T14:45:25.814Z,23.69
2023-06-07T14:50:29.063Z,24.41
2023-06-07T14:55:33.567Z,24.69
2023-06-07T15:00:36.998Z,24.96
2023-06-07T15:05:40.104Z,24.71
2023-06-07T15:10:44.389Z,24.89
2023-06-07T15:15:47.536Z,24.33
2023-06-07T15:20:50.711Z,24.54
2023-06-07T15:25:55.055Z,24.33
2023-06-07T15:30:58.140Z,24.25
2023-06-07T15:36:01.094Z,23.97
2023-06-07T15:41:08.125Z,23.76
2023-06-07T15:46:12.242Z,24.20
2023-06-07T15:51:15.384Z,24.49
2023-06-07T15:56:19.781Z,24.62
2023-06-07T16:01:22.980Z,24.31
2023-06-07T16:06:26.014Z,24.12
2023-06-07T16:11:30.523Z,24.22
2023-06-07T16:16:33.573Z,23.82
2023-06-07T16:21:37.450Z,23.67
2023-06-07T16:26:41.703Z,23.80
2023-06-07T16:31:44.578Z,23.74
2023-06-07T16:36:47.638Z,23.35
2023-06-07T16:41:52.163Z,23.54
2023-06-07T16:46:56.667Z,22.58
2023-06-07T16:52:00.144Z,22.97
2023-06-07T16:57:06.264Z,22.54
2023-06-07T17:02:09.341Z,22.48
2023-06-07T17:07:12.461Z,22.71
2023-06-07T17:12:16.744Z,22.49
2023-06-07T17:17:19.773Z,22.01
2023-06-07T17:22:22.908Z,22.09
2023-06-07T17:27:27.307Z,21.95
2023-06-07T17:32:30.334Z,21.54
2023-06-07T17:37:33.245Z,21.62
2023-06-07T17:42:37.562Z,21.54
2023-06-07T17:47:47.701Z,21.50
2023-06-07T17:52:50.910Z,21.43
2023-06-07T17:57:55.356Z,21.21
2023-06-07T18:02:58.507Z,20.77
2023-06-07T18:08:01.668Z,20.45
2023-06-07T18:13:06.321Z,20.68
2023-06-07T18:18:09.397Z,20.50
2023-06-07T18:23:13.460Z,20.30
2023-06-07T18:28:17.883Z,20.32
2023-06-07T18:33:28.679Z,19.95
2023-06-07T18:38:31.761Z,19.73
2023-06-07T18:43:36.112Z,19.71
2023-06-07T18:48:39.043Z,19.70
2023-06-07T18:53:42.160Z,19.54
2023-06-07T18:58:47.025Z,19.33
2023-06-07T19:03:50.313Z,19.21
2023-06-07T19:08:53.410Z,18.95
2023-06-07T19:13:57.834Z,18.75
2023-06-07T19:19:00.870Z,18.59
2023-06-07T19:24:04.565Z,18.38
2023-06-07T19:29:09.085Z,18.20
2023-06-07T19:34:12.075Z,18.07
2023-06-07T19:39:15.109Z,17.78
2023-06-07T19:44:19.460Z,17.85
2023-06-07T19:49:22.637Z,17.74
2023-06-07T19:54:25.756Z,17.57
2023-06-07T19:59:30.052Z,17.31
2023-06-07T20:04:34.169Z,17.22
2023-06-07T20:09:39.816Z,17.17
2023-06-07T20:14:44.210Z,17.16
2023-06-07T20:19:47.335Z,17.07
2023-06-07T20:24:50.592Z,16.95
2023-06-07T20:29:54.907Z,16.78
2023-06-07T20:34:58.902Z,16.73
2023-06-07T20:40:02.401Z,16.64
2023-06-07T20:45:08.377Z,16.56
2023-06-07T20:50:11.651Z,16.44
2023-06-07T20:55:14.627Z,16.40
2023-06-07T21:00:19.997Z,16.37
2023-06-07T21:05:22.980Z,16.27
2023-06-07T21:10:26.137Z,16.18
2023-06-07T21:15:30.502Z,16.06
2023-06-07T21:20:33.508Z,15.97
2023-06-07T21:25:36.420Z,15.95
2023-06-07T21:30:40.715Z,15.89
2023-06-07T21:35:43.591Z,15.75
2023-06-07T21:40:46.517Z,15.63
2023-06-07T21:45:50.937Z,15.65
2023-06-07T21:50:53.803Z,15.56
2023-06-07T21:55:56.720Z,15.42
2023-06-07T22:01:00.992Z,15.47
2023-06-07T22:06:03.976Z,15.46
2023-06-07T22:11:06.850Z,15.45
2023-06-07T22:16:11.208Z,15.40
2023-06-07T22:21:14.717Z,15.28
2023-06-07T22:26:17.516Z,15.30
2023-06-07T22:31:21.717Z,15.19
2023-06-07T22:36:32.680Z,15.18
2023-06-07T22:41:35.846Z,15.18
2023-06-07T22:46:40.158Z,15.14
2023-06-07T22:51:43.568Z,15.16
2023-06-07T22:56:46.467Z,14.98
2023-06-07T23:01:51.063Z,15.02
2023-06-07T23:06:54.134Z,15.06
2023-06-07T23:12:00.241Z,15.21
2023-06-07T23:17:06.211Z,15.10
2023-06-07T23:22:11.420Z,15.11
2023-06-07T23:27:14.279Z,14.82
2023-06-07T23:32:18.602Z,15.01
2023-06-07T23:37:21.470Z,14.99
2023-06-07T23:42:24.358Z,14.91
2023-06-07T23:47:28.806Z,14.77
2023-06-07T23:52:31.802Z,14.73
2023-06-07T23:57:34.701Z,14.75
